Capitol Logistics 3263


KMCO
Orlando International Airport
Orlando, Florida, US
KMIA
Miami International Airport
Miami, Florida, US

Activity Log

Date Flight Route Aircraft Duration
11/04/2019 CPX663 MLB ANNEY4 SF34 1h 02m
10/06/2019 CPX663 MLB ANNEY4 SF34 1h 04m
08/25/2019 CPX663 MLB ANNEY4 SF34 1h 03m

Route Details

Aircraft Information
Primary: Saab 340AF
Backup: Not Available
Route Data
Distance: 167nm
Sched. Duration: 1h 25m
Avg. Duration: 1h 03m (-22m)
Times Flown: 3
Recm'd Route: MLB ANNEY4
Planned Altitude: 15,000ft
Origin Wx: KMCO 231153Z 01003KT 10SM BKN070 12/10 A3024 RMK AO2 SLP239 T01170100 10128 20117 51003
Dest. Wx: KMIA 231153Z 36004KT 10SM FEW035 18/14 A3017 RMK AO2 SLP217 60000 70004 T01830139 10200 20178 53008
Notes:

Financial History
Total Freight: 20,145lbs
Average Load: 6,715lbs/flt
Fuel Used: 2,366lbs
Avg. Fuel Used: 789lbs/flt
Fuel Expense: $2,437
Avg. Fuel Expense: $812
Avg. Fuel Cost: $1.03/lbs
Total Gross Income: $22,562
Pilot Pay: $447
Total Expenses: $2,593
Total Revenue: $16,924
Average Revenue: $7,520.80